Sample Charts Sidebar
> Live data! Your data is on the web site for you to access within minutes
 
> Detailed data is easily downloaded as data file, which can be opened with Excel
 
> Charts can be customised if necessary
  Chart 1
 

(A maximum of 50 rows are displayed here. Use "Export Data" to see all rows in the date range.)
Date Collected Temperature
(Celcius)
Wind-chill
(Celcius)
Wind Speed
(km/hr)
Gust
(km/hr)
Wind Direction
(degrees)
2019-01-19 22:00 11.0 9.0 4 11 357
2019-01-19 21:00 10.0 9.7 2 8 52
2019-01-19 20:00 10.2 10.0 3 6 55
2019-01-19 19:00 11.0 10.5 3 7 41
2019-01-19 18:00 11.6 11.0 3 6 37
2019-01-19 17:00 12.9 11.7 4 11 19
2019-01-19 16:00 14.1 12.2 5 12 355
2019-01-19 15:00 14.4 12.4 5 14 35
2019-01-19 14:00 14.2 12.2 5 14 14
2019-01-19 13:00 14.3 12.7 5 11 20
2019-01-19 12:00 14.0 12.1 5 12 2
2019-01-19 11:00 12.5 11.1 4 8 34
2019-01-19 10:00 8.9 7.7 4 8 52
2019-01-19 09:00 7.6 5.9 4 8 58
2019-01-19 08:00 5.3 3.7 4 8 45
2019-01-19 07:00 5.1 4.8 2 5 55
2019-01-19 06:00 5.3 5.4 2 5 31
2019-01-19 05:00 7.0 7.0 1 3 214
2019-01-19 04:00 8.4 7.9 3 8 188
2019-01-19 03:00 9.1 6.9 5 13 204
2019-01-19 02:00 9.0 4.5 7 16 206
2019-01-19 01:00 8.9 5.4 6 15 201
2019-01-19 00:00 9.2 3.1 10 23 209
2019-01-18 23:00 8.4 6.7 4 10 197
2019-01-18 22:00 7.5 5.8 4 13 187
2019-01-18 21:00 8.6 6.3 5 15 201
2019-01-18 20:00 8.8 1.5 11 28 199
2019-01-18 19:00 9.1 4.2 7 20 205
2019-01-18 18:00 8.6 7.8 2 13 216
2019-01-18 17:00 8.1 3.2 8 20 193
2019-01-18 16:00 8.7 6.3 5 15 264
2019-01-18 15:00 9.6 5.6 7 19 222
2019-01-18 14:00 9.7 2.6 10 25 207
2019-01-18 13:00 10.3 4.0 10 23 206
2019-01-18 12:00 10.6 6.2 7 15 208
2019-01-18 11:00 9.8 8.1 4 11 199
2019-01-18 10:00 9.6 9.2 2 8 200
2019-01-18 09:00 9.5 8.1 4 11 197
2019-01-18 08:00 9.7 9.0 3 10 222
2019-01-18 07:00 11.2 10.3 3 8 234
2019-01-18 06:00 12.8 12.2 3 10 345
2019-01-18 05:00 13.2 11.6 4 13 342
2019-01-18 04:00 13.0 12.3 3 10 356
2019-01-18 03:00 13.4 11.8 5 16 353
2019-01-18 02:00 14.4 11.4 6 20 348
2019-01-18 01:00 14.2 11.6 6 16 12
2019-01-18 00:00 14.2 12.1 5 15 350
2019-01-17 23:00 13.5 11.7 5 13 347
2019-01-17 22:00 13.6 12.9 3 8 1
2019-01-17 21:00 13.3 11.6 5 10 50